Bochem Mumbai — VRHJ8 — position and weather

sailwx.info

Track history (hours):
 
Tides and Currents Weather Stations Pressure Air Temp Water Temp Dewpoint Dewpoint Depression Visibility Wind Speed Wind Dir Waves Ship Positions

Bochem Mumbai

Last reported at 2016-Sep-24 01:27 UTC. Time now 2016-Sep-26 12:19 UTC.
Position S 29°27' E 032°01'.

Length 171 m; draft 10.9 m.

Type: Tanker. MMSI: 477932400.

Date/timePositionNaut miles runAvg speedWind from/ knotsBaromVisibWave heightAir tempDewpointWater temp
2016-Sep-24 01:27S 29°27' E 032°01'910.2
2016-Sep-24 00:33S 29°31' E 031°52'49 9.7
2016-Sep-23 19:33S 29°53' E 031°02'0 0.0
2016-Sep-23 17:33S 29°53' E 031°02'0 0.0
2016-Sep-23 16:33S 29°53' E 031°02'0 0.0
2016-Sep-23 15:33S 29°53' E 031°02'0 0.0
2016-Sep-23 13:33S 29°53' E 031°02'8 2.1
2016-Sep-23 09:33S 29°51' E 031°11'1 0.2
2016-Sep-23 06:33S 29°51' E 031°11'3 1.4
2016-Sep-23 04:33S 29°53' E 031°10'9 8.8
2016-Sep-23 03:33S 30°02' E 031°13'1110.7
2016-Sep-23 02:33S 30°12' E 031°13'1010.5
2016-Sep-23 01:33S 30°23' E 031°11'  
Track history (hours):
 
Tides and Currents Weather Stations Pressure Air Temp Water Temp Dewpoint Dewpoint Depression Visibility Wind Speed Wind Dir Waves Ship Positions

Bochem Mumbai

Last reported at 2016-Sep-24 01:27 UTC. Time now 2016-Sep-26 12:19 UTC.
Position S 29°27' E 032°01'.

Length 171 m; draft 10.9 m.

Type: Tanker. MMSI: 477932400.

Date/timePositionNaut miles runAvg speedWind from/ knotsBaromVisibWave heightAir tempDewpointWater temp
2016-Sep-24 01:27S 29°27' E 032°01'910.2
2016-Sep-24 00:33S 29°31' E 031°52'49 9.7
2016-Sep-23 19:33S 29°53' E 031°02'0 0.0
2016-Sep-23 17:33S 29°53' E 031°02'0 0.0
2016-Sep-23 16:33S 29°53' E 031°02'0 0.0
2016-Sep-23 15:33S 29°53' E 031°02'0 0.0
2016-Sep-23 13:33S 29°53' E 031°02'8 2.1
2016-Sep-23 09:33S 29°51' E 031°11'1 0.2
2016-Sep-23 06:33S 29°51' E 031°11'3 1.4
2016-Sep-23 04:33S 29°53' E 031°10'9 8.8
2016-Sep-23 03:33S 30°02' E 031°13'1110.7
2016-Sep-23 02:33S 30°12' E 031°13'1010.5
2016-Sep-23 01:33S 30°23' E 031°11'  

Dump ship's entire track history